N4363R KIFP-KLAS
Flight info
| Callsign | N4363R |
|---|---|
| Flight time | N/A |
| Altitude | 6500 |
| Route | VFR NW |
| Aircraft | C172/L-DOV/C |
Departure
| Time | 2026-04-27 15:11 |
|---|---|
| Airport | Laughlin Bullhead International Airport (KIFP) |
Arrival
| Time | N/A |
|---|---|
| Airport | Harry Reid International Airport (KLAS) |
| Time | Latitude | Longitude | Altitude | Speed | Heading |
|---|---|---|---|---|---|
| 2026-04-27 15:03 | 35.16365 | -114.55753 | 671 ft | 0 kts | 265° |
| 2026-04-27 15:09 | 35.16365 | -114.55754 | 670 ft | 1 kts | 266° |
| 2026-04-27 15:09 | 35.16406 | -114.55776 | 667 ft | 10 kts | 358° |
| 2026-04-27 15:09 | 35.16481 | -114.55773 | 666 ft | 9 kts | 5° |
| 2026-04-27 15:09 | 35.16510 | -114.55818 | 661 ft | 10 kts | 263° |
| 2026-04-27 15:10 | 35.16558 | -114.55888 | 654 ft | 13 kts | 357° |
| 2026-04-27 15:10 | 35.16626 | -114.55928 | 648 ft | 13 kts | 277° |
| 2026-04-27 15:10 | 35.16568 | -114.56014 | 642 ft | 22 kts | 185° |
| 2026-04-27 15:10 | 35.16237 | -114.55996 | 653 ft | 70 kts | 178° |
| 2026-04-27 15:11 | 35.15714 | -114.55959 | 816 ft | 76 kts | 177° |
| 2026-04-27 15:11 | 35.15177 | -114.55940 | 1009 ft | 78 kts | 175° |
| 2026-04-27 15:11 | 35.14630 | -114.55867 | 1201 ft | 79 kts | 175° |
| 2026-04-27 15:11 | 35.14070 | -114.55892 | 1373 ft | 82 kts | 180° |
| 2026-04-27 15:12 | 35.13497 | -114.55879 | 1547 ft | 84 kts | 182° |
| 2026-04-27 15:12 | 35.13002 | -114.56185 | 1783 ft | 78 kts | 226° |
| 2026-04-27 15:12 | 35.12719 | -114.56756 | 1956 ft | 80 kts | 250° |
| 2026-04-27 15:12 | 35.12674 | -114.57422 | 2149 ft | 80 kts | 280° |
| 2026-04-27 15:13 | 35.12898 | -114.58032 | 2348 ft | 79 kts | 309° |
| 2026-04-27 15:13 | 35.13360 | -114.58379 | 2501 ft | 81 kts | 348° |
| 2026-04-27 15:13 | 35.13909 | -114.58478 | 2699 ft | 79 kts | 355° |
| 2026-04-27 15:13 | 35.14455 | -114.58534 | 2888 ft | 78 kts | 356° |
| 2026-04-27 15:14 | 35.15001 | -114.58581 | 3068 ft | 78 kts | 358° |
| 2026-04-27 15:14 | 35.15548 | -114.58646 | 3238 ft | 79 kts | 0° |
| 2026-04-27 15:14 | 35.16090 | -114.58732 | 3414 ft | 79 kts | 359° |
| 2026-04-27 15:14 | 35.16646 | -114.58772 | 3603 ft | 77 kts | 345° |
| 2026-04-27 15:15 | 35.17143 | -114.58990 | 3755 ft | 81 kts | 347° |
| 2026-04-27 15:15 | 35.17690 | -114.59194 | 3895 ft | 84 kts | 345° |
| 2026-04-27 15:15 | 35.18220 | -114.59461 | 4079 ft | 83 kts | 337° |
| 2026-04-27 15:15 | 35.18751 | -114.59757 | 4244 ft | 83 kts | 335° |
| 2026-04-27 15:16 | 35.19293 | -114.60036 | 4382 ft | 86 kts | 342° |
| 2026-04-27 15:16 | 35.19850 | -114.60289 | 4559 ft | 85 kts | 342° |
| 2026-04-27 15:16 | 35.20415 | -114.60517 | 4711 ft | 85 kts | 339° |
| 2026-04-27 15:16 | 35.21023 | -114.60667 | 4802 ft | 93 kts | 5° |
| 2026-04-27 15:17 | 35.21628 | -114.60804 | 4985 ft | 89 kts | 339° |
| 2026-04-27 15:17 | 35.22227 | -114.61081 | 5120 ft | 92 kts | 336° |
| 2026-04-27 15:17 | 35.22806 | -114.61389 | 5297 ft | 88 kts | 330° |
| 2026-04-27 15:17 | 35.23362 | -114.61755 | 5447 ft | 88 kts | 323° |
| 2026-04-27 15:18 | 35.23854 | -114.62184 | 5598 ft | 88 kts | 318° |
| 2026-04-27 15:18 | 35.24338 | -114.62659 | 5740 ft | 90 kts | 318° |
| 2026-04-27 15:18 | 35.24815 | -114.63147 | 5866 ft | 93 kts | 317° |
| 2026-04-27 15:18 | 35.25295 | -114.63678 | 6003 ft | 93 kts | 313° |
| 2026-04-27 15:19 | 35.25789 | -114.64190 | 6130 ft | 95 kts | 321° |
| 2026-04-27 15:19 | 35.26303 | -114.64677 | 6281 ft | 94 kts | 317° |
| 2026-04-27 15:19 | 35.26828 | -114.65179 | 6408 ft | 95 kts | 321° |
| 2026-04-27 15:19 | 35.27405 | -114.65659 | 6420 ft | 102 kts | 321° |
| 2026-04-27 15:20 | 35.27946 | -114.66199 | 6510 ft | 100 kts | 320° |
| 2026-04-27 15:20 | 35.28521 | -114.66701 | 6545 ft | 103 kts | 322° |
| 2026-04-27 15:20 | 35.29110 | -114.67219 | 6571 ft | 105 kts | 322° |
| 2026-04-27 15:20 | 35.29708 | -114.67744 | 6615 ft | 104 kts | 324° |
| 2026-04-27 15:21 | 35.30337 | -114.68210 | 6625 ft | 107 kts | 333° |
| 2026-04-27 15:21 | 35.31030 | -114.68558 | 6663 ft | 107 kts | 338° |
| 2026-04-27 15:21 | 35.31730 | -114.68870 | 6692 ft | 107 kts | 335° |
| 2026-04-27 15:21 | 35.32431 | -114.69166 | 6715 ft | 108 kts | 343° |
| 2026-04-27 15:22 | 35.33166 | -114.69386 | 6738 ft | 108 kts | 347° |
| 2026-04-27 15:22 | 35.33926 | -114.69540 | 6741 ft | 111 kts | 352° |
| 2026-04-27 15:22 | 35.34688 | -114.69633 | 6760 ft | 111 kts | 357° |
| 2026-04-27 15:22 | 35.35453 | -114.69664 | 6774 ft | 111 kts | 358° |
| 2026-04-27 15:23 | 35.36249 | -114.69699 | 6754 ft | 114 kts | 355° |
| 2026-04-27 15:23 | 35.37044 | -114.69740 | 6732 ft | 114 kts | 355° |
| 2026-04-27 15:23 | 35.37823 | -114.69912 | 6712 ft | 114 kts | 345° |
| 2026-04-27 15:23 | 35.38573 | -114.70205 | 6702 ft | 113 kts | 336° |
| 2026-04-27 15:24 | 35.39299 | -114.70583 | 6684 ft | 113 kts | 333° |
| 2026-04-27 15:24 | 35.40001 | -114.71025 | 6666 ft | 113 kts | 332° |
| 2026-04-27 15:24 | 35.40714 | -114.71429 | 6650 ft | 113 kts | 331° |
| 2026-04-27 15:24 | 35.41410 | -114.71881 | 6642 ft | 112 kts | 328° |
| 2026-04-27 15:25 | 35.42077 | -114.72389 | 6614 ft | 113 kts | 324° |
| 2026-04-27 15:25 | 35.42709 | -114.72935 | 6601 ft | 112 kts | 321° |
| 2026-04-27 15:25 | 35.43337 | -114.73503 | 6583 ft | 112 kts | 319° |
| 2026-04-27 15:25 | 35.43971 | -114.74077 | 6567 ft | 112 kts | 320° |
| 2026-04-27 15:26 | 35.44593 | -114.74621 | 6557 ft | 111 kts | 323° |
| 2026-04-27 15:26 | 35.45232 | -114.75180 | 6535 ft | 111 kts | 317° |